OAN110 EPKK-EFRO
Flight info
| Callsign | OAN110 |
|---|---|
| Flight time | 2h 39m |
| Altitude | 25000 |
| Route | POBOK DCT SUWGI DCT BERIL DCT RENVI |
| Aircraft | C17/H-SDE1E2FGHIJ5RTUWXY/LB1D1 |
Departure
| Time | 2026-05-06 16:34 |
|---|---|
| Airport | Kraków John Paul II International Airport (EPKK) |
Arrival
| Time | 2026-05-06 19:14 |
|---|---|
| Airport | Rovaniemi Airport (EFRO) |
| Time | Latitude | Longitude | Altitude | Speed | Heading |
|---|---|---|---|---|---|
| 2026-05-06 16:10 | 50.07596 | 19.79415 | 797 ft | 0 kts | 168° |
| 2026-05-06 16:25 | 50.07590 | 19.79413 | 797 ft | 1 kts | 197° |
| 2026-05-06 16:25 | 50.07587 | 19.79396 | 797 ft | 2 kts | 277° |
| 2026-05-06 16:25 | 50.07605 | 19.79386 | 797 ft | 6 kts | 354° |
| 2026-05-06 16:26 | 50.07650 | 19.79437 | 797 ft | 12 kts | 74° |
| 2026-05-06 16:26 | 50.07677 | 19.79602 | 797 ft | 19 kts | 75° |
| 2026-05-06 16:26 | 50.07705 | 19.79819 | 797 ft | 21 kts | 77° |
| 2026-05-06 16:26 | 50.07734 | 19.80031 | 797 ft | 18 kts | 78° |
| 2026-05-06 16:27 | 50.07758 | 19.80195 | 797 ft | 13 kts | 78° |
| 2026-05-06 16:27 | 50.07769 | 19.80279 | 797 ft | 0 kts | 78° |
| 2026-05-06 16:30 | 50.07788 | 19.80332 | 797 ft | 8 kts | 38° |
| 2026-05-06 16:30 | 50.07829 | 19.80339 | 797 ft | 4 kts | 352° |
| 2026-05-06 16:31 | 50.07830 | 19.80339 | 797 ft | 0 kts | 352° |
| 2026-05-06 16:32 | 50.07831 | 19.80339 | 797 ft | 1 kts | 352° |
| 2026-05-06 16:32 | 50.07863 | 19.80331 | 797 ft | 9 kts | 348° |
| 2026-05-06 16:33 | 50.07950 | 19.80287 | 796 ft | 18 kts | 343° |
| 2026-05-06 16:33 | 50.08005 | 19.80152 | 797 ft | 13 kts | 255° |
| 2026-05-06 16:33 | 50.08000 | 19.80115 | 798 ft | 0 kts | 258° |
| 2026-05-06 16:34 | 50.07987 | 19.80024 | 798 ft | 29 kts | 257° |
| 2026-05-06 16:34 | 50.07891 | 19.79344 | 796 ft | 98 kts | 257° |
| 2026-05-06 16:34 | 50.07708 | 19.78081 | 998 ft | 128 kts | 252° |
| 2026-05-06 16:34 | 50.07606 | 19.76650 | 1444 ft | 133 kts | 259° |
| 2026-05-06 16:35 | 50.07648 | 19.75155 | 2111 ft | 152 kts | 275° |
| 2026-05-06 16:35 | 50.08014 | 19.73504 | 2958 ft | 169 kts | 292° |
| 2026-05-06 16:35 | 50.08845 | 19.72027 | 3844 ft | 192 kts | 317° |
| 2026-05-06 16:35 | 50.10111 | 19.71310 | 4639 ft | 204 kts | 353° |
| 2026-05-06 16:36 | 50.11512 | 19.71962 | 5126 ft | 222 kts | 35° |
| 2026-05-06 16:36 | 50.12443 | 19.73911 | 5080 ft | 235 kts | 69° |
| 2026-05-06 16:36 | 50.13427 | 19.75960 | 4587 ft | 245 kts | 33° |
| 2026-05-06 16:36 | 50.14986 | 19.77000 | 4126 ft | 242 kts | 15° |
| 2026-05-06 16:37 | 50.16598 | 19.77800 | 3336 ft | 254 kts | 15° |
| 2026-05-06 16:37 | 50.18396 | 19.78666 | 2495 ft | 269 kts | 15° |
| 2026-05-06 16:37 | 50.20115 | 19.79492 | 2351 ft | 253 kts | 14° |
| 2026-05-06 16:37 | 50.21743 | 19.80282 | 2206 ft | 236 kts | 15° |
| 2026-05-06 16:38 | 50.23255 | 19.81060 | 2409 ft | 225 kts | 16° |
| 2026-05-06 16:38 | 50.24850 | 19.81890 | 2256 ft | 235 kts | 17° |
| 2026-05-06 16:38 | 50.26310 | 19.82680 | 2849 ft | 227 kts | 17° |
| 2026-05-06 16:38 | 50.27815 | 19.83628 | 3631 ft | 230 kts | 26° |
| 2026-05-06 16:39 | 50.29117 | 19.85065 | 4425 ft | 236 kts | 38° |
| 2026-05-06 16:39 | 50.30461 | 19.86571 | 5340 ft | 237 kts | 32° |
| 2026-05-06 16:39 | 50.31907 | 19.87922 | 6265 ft | 252 kts | 28° |
| 2026-05-06 16:39 | 50.33526 | 19.89341 | 5540 ft | 278 kts | 26° |
| 2026-05-06 16:40 | 50.35251 | 19.90928 | 4814 ft | 286 kts | 39° |
| 2026-05-06 16:40 | 50.36709 | 19.92832 | 4916 ft | 257 kts | 38° |
| 2026-05-06 16:40 | 50.38123 | 19.94376 | 5109 ft | 250 kts | 31° |
| 2026-05-06 16:40 | 50.39602 | 19.95899 | 5365 ft | 254 kts | 33° |
| 2026-05-06 16:41 | 50.41065 | 19.97450 | 5826 ft | 257 kts | 32° |
| 2026-05-06 16:41 | 50.42576 | 19.99003 | 6291 ft | 261 kts | 32° |
| 2026-05-06 16:41 | 50.44131 | 20.00588 | 6734 ft | 277 kts | 32° |
| 2026-05-06 16:41 | 50.45755 | 20.02241 | 7199 ft | 275 kts | 32° |
| 2026-05-06 16:42 | 50.47352 | 20.03871 | 7655 ft | 276 kts | 32° |
| 2026-05-06 16:42 | 50.48975 | 20.05531 | 8100 ft | 282 kts | 32° |
| 2026-05-06 16:42 | 50.50701 | 20.07294 | 8595 ft | 305 kts | 32° |
| 2026-05-06 16:42 | 50.52470 | 20.09099 | 9057 ft | 302 kts | 32° |
| 2026-05-06 16:43 | 50.54263 | 20.10927 | 9545 ft | 311 kts | 32° |
| 2026-05-06 16:43 | 50.56077 | 20.12777 | 10002 ft | 310 kts | 32° |
| 2026-05-06 16:43 | 50.57895 | 20.14629 | 10424 ft | 314 kts | 32° |
| 2026-05-06 16:43 | 50.59750 | 20.16517 | 10801 ft | 321 kts | 32° |
| 2026-05-06 16:44 | 50.61616 | 20.18418 | 11015 ft | 318 kts | 32° |
| 2026-05-06 16:44 | 50.63469 | 20.20307 | 11248 ft | 319 kts | 32° |
| 2026-05-06 16:44 | 50.65344 | 20.22218 | 11507 ft | 325 kts | 32° |
| 2026-05-06 16:44 | 50.67300 | 20.24207 | 11808 ft | 337 kts | 31° |
| 2026-05-06 16:45 | 50.69260 | 20.26169 | 12186 ft | 332 kts | 28° |
| 2026-05-06 16:45 | 50.71286 | 20.28004 | 12587 ft | 340 kts | 28° |
| 2026-05-06 16:45 | 50.73386 | 20.29702 | 12971 ft | 339 kts | 21° |
| 2026-05-06 16:45 | 50.75574 | 20.31099 | 13391 ft | 340 kts | 19° |
| 2026-05-06 16:46 | 50.77773 | 20.32567 | 13767 ft | 346 kts | 22° |
| 2026-05-06 16:46 | 50.79949 | 20.34201 | 14125 ft | 347 kts | 24° |
| 2026-05-06 16:46 | 50.82135 | 20.35830 | 14485 ft | 347 kts | 22° |
| 2026-05-06 16:46 | 50.84349 | 20.37405 | 14850 ft | 351 kts | 22° |
| 2026-05-06 16:47 | 50.86588 | 20.38997 | 15213 ft | 355 kts | 22° |
| 2026-05-06 16:47 | 50.88839 | 20.40632 | 15581 ft | 357 kts | 22° |
| 2026-05-06 16:47 | 50.91094 | 20.42278 | 15957 ft | 358 kts | 22° |
| 2026-05-06 16:47 | 50.93373 | 20.43928 | 16341 ft | 362 kts | 22° |
| 2026-05-06 16:48 | 50.95642 | 20.45567 | 16723 ft | 365 kts | 22° |
| 2026-05-06 16:48 | 50.97987 | 20.47274 | 17123 ft | 366 kts | 22° |
| 2026-05-06 16:48 | 51.00317 | 20.48970 | 17517 ft | 370 kts | 22° |
| 2026-05-06 16:48 | 51.02639 | 20.50657 | 17914 ft | 375 kts | 22° |
| 2026-05-06 16:49 | 51.05023 | 20.52395 | 18284 ft | 380 kts | 22° |
| 2026-05-06 16:49 | 51.07433 | 20.54157 | 18641 ft | 380 kts | 22° |
| 2026-05-06 16:49 | 51.09840 | 20.55916 | 18988 ft | 380 kts | 22° |
| 2026-05-06 16:49 | 51.12251 | 20.57678 | 19352 ft | 383 kts | 22° |
| 2026-05-06 16:50 | 51.14687 | 20.59459 | 19716 ft | 386 kts | 22° |
| 2026-05-06 16:50 | 51.17123 | 20.61247 | 20090 ft | 386 kts | 22° |
| 2026-05-06 16:50 | 51.19561 | 20.63038 | 20462 ft | 387 kts | 21° |
| 2026-05-06 16:50 | 51.21190 | 20.64234 | 20705 ft | 389 kts | 21° |
| 2026-05-06 16:51 | 51.24491 | 20.66659 | 21224 ft | 392 kts | 21° |
| 2026-05-06 16:51 | 51.26970 | 20.68488 | 21611 ft | 392 kts | 21° |
| 2026-05-06 16:51 | 51.29454 | 20.70320 | 22002 ft | 395 kts | 21° |
| 2026-05-06 16:51 | 51.31954 | 20.72163 | 22411 ft | 398 kts | 21° |
| 2026-05-06 16:52 | 51.34473 | 20.74025 | 22798 ft | 400 kts | 21° |
| 2026-05-06 16:52 | 51.36996 | 20.75896 | 23201 ft | 400 kts | 21° |
| 2026-05-06 16:52 | 51.39533 | 20.77774 | 23570 ft | 402 kts | 21° |
| 2026-05-06 16:52 | 51.42078 | 20.79660 | 23927 ft | 405 kts | 21° |
| 2026-05-06 16:53 | 51.44644 | 20.81567 | 24280 ft | 408 kts | 21° |
| 2026-05-06 16:53 | 51.47227 | 20.83492 | 24637 ft | 411 kts | 21° |
| 2026-05-06 16:53 | 51.49842 | 20.85438 | 24759 ft | 418 kts | 21° |
| 2026-05-06 16:53 | 51.52474 | 20.87398 | 24792 ft | 414 kts | 21° |
| 2026-05-06 16:54 | 51.55070 | 20.89340 | 24794 ft | 410 kts | 21° |
| 2026-05-06 16:54 | 51.57664 | 20.91281 | 24789 ft | 410 kts | 21° |
| 2026-05-06 16:54 | 51.60197 | 20.93179 | 24791 ft | 398 kts | 21° |
| 2026-05-06 16:54 | 51.62794 | 20.95115 | 24809 ft | 421 kts | 21° |
| 2026-05-06 16:55 | 51.65461 | 20.97112 | 24810 ft | 422 kts | 21° |
| 2026-05-06 16:55 | 51.68107 | 20.99113 | 24805 ft | 420 kts | 21° |
| 2026-05-06 16:55 | 51.70762 | 21.01112 | 24806 ft | 421 kts | 21° |
| 2026-05-06 16:55 | 51.73424 | 21.03110 | 24809 ft | 423 kts | 21° |
| 2026-05-06 16:56 | 51.76056 | 21.05096 | 24813 ft | 423 kts | 21° |
| 2026-05-06 16:56 | 51.78713 | 21.07107 | 24809 ft | 421 kts | 21° |
| 2026-05-06 16:56 | 51.81369 | 21.09115 | 24805 ft | 422 kts | 21° |
| 2026-05-06 16:56 | 51.84030 | 21.11126 | 24800 ft | 423 kts | 22° |
| 2026-05-06 16:57 | 51.86690 | 21.13143 | 24804 ft | 423 kts | 22° |
| 2026-05-06 16:57 | 51.89354 | 21.15170 | 24801 ft | 422 kts | 22° |
| 2026-05-06 16:57 | 51.92013 | 21.17192 | 24800 ft | 422 kts | 22° |
| 2026-05-06 16:57 | 51.94664 | 21.19208 | 24801 ft | 422 kts | 22° |
| 2026-05-06 16:58 | 51.97328 | 21.21239 | 24796 ft | 423 kts | 22° |
| 2026-05-06 16:58 | 51.99993 | 21.23273 | 24798 ft | 423 kts | 22° |
| 2026-05-06 16:58 | 52.02650 | 21.25304 | 24799 ft | 422 kts | 22° |
| 2026-05-06 16:58 | 52.05308 | 21.27340 | 24807 ft | 421 kts | 22° |
| 2026-05-06 16:59 | 52.07957 | 21.29369 | 24799 ft | 422 kts | 22° |
| 2026-05-06 16:59 | 52.10619 | 21.31411 | 24799 ft | 423 kts | 22° |
| 2026-05-06 16:59 | 52.13280 | 21.33455 | 24799 ft | 422 kts | 22° |
| 2026-05-06 16:59 | 52.15936 | 21.35497 | 24799 ft | 422 kts | 23° |
| 2026-05-06 17:00 | 52.18588 | 21.37542 | 24795 ft | 422 kts | 23° |
| 2026-05-06 17:00 | 52.20344 | 21.38897 | 24795 ft | 422 kts | 23° |
| 2026-05-06 17:00 | 52.23005 | 21.40951 | 24796 ft | 423 kts | 23° |
| 2026-05-06 17:00 | 52.25664 | 21.43007 | 24797 ft | 423 kts | 23° |
| 2026-05-06 17:01 | 52.28320 | 21.45062 | 24799 ft | 422 kts | 23° |
| 2026-05-06 17:01 | 52.30977 | 21.47122 | 24790 ft | 425 kts | 23° |
| 2026-05-06 17:01 | 52.33656 | 21.49201 | 24793 ft | 426 kts | 23° |
| 2026-05-06 17:01 | 52.36333 | 21.51283 | 24792 ft | 425 kts | 23° |
| 2026-05-06 17:02 | 52.38995 | 21.53356 | 24791 ft | 424 kts | 23° |
| 2026-05-06 17:02 | 52.41658 | 21.55429 | 24789 ft | 425 kts | 23° |
| 2026-05-06 17:02 | 52.44328 | 21.57512 | 24793 ft | 426 kts | 23° |
| 2026-05-06 17:02 | 52.47002 | 21.59604 | 24792 ft | 425 kts | 23° |
| 2026-05-06 17:03 | 52.49667 | 21.61689 | 24788 ft | 424 kts | 23° |
| 2026-05-06 17:03 | 52.52335 | 21.63779 | 24784 ft | 426 kts | 23° |
| 2026-05-06 17:03 | 52.55020 | 21.65885 | 24782 ft | 429 kts | 23° |
| 2026-05-06 17:03 | 52.57717 | 21.68004 | 24789 ft | 428 kts | 23° |
| 2026-05-06 17:04 | 52.60362 | 21.70088 | 24787 ft | 426 kts | 23° |
| 2026-05-06 17:04 | 52.63071 | 21.72221 | 24782 ft | 427 kts | 23° |
| 2026-05-06 17:04 | 52.65721 | 21.74310 | 24782 ft | 428 kts | 23° |
| 2026-05-06 17:04 | 52.68404 | 21.76431 | 24778 ft | 428 kts | 23° |
| 2026-05-06 17:05 | 52.71089 | 21.78555 | 24772 ft | 427 kts | 23° |
| 2026-05-06 17:05 | 52.73760 | 21.80672 | 24779 ft | 427 kts | 23° |
| 2026-05-06 17:05 | 52.76457 | 21.82809 | 24779 ft | 433 kts | 23° |
| 2026-05-06 17:05 | 52.79175 | 21.84968 | 24784 ft | 434 kts | 24° |
| 2026-05-06 17:06 | 52.81884 | 21.87127 | 24774 ft | 430 kts | 24° |
| 2026-05-06 17:06 | 52.84579 | 21.89273 | 24773 ft | 430 kts | 23° |
| 2026-05-06 17:06 | 52.87279 | 21.91422 | 24774 ft | 431 kts | 24° |
| 2026-05-06 17:06 | 52.89988 | 21.93587 | 24777 ft | 432 kts | 24° |
| 2026-05-06 17:07 | 52.92689 | 21.95751 | 24777 ft | 431 kts | 24° |
| 2026-05-06 17:07 | 52.95386 | 21.97911 | 24786 ft | 430 kts | 24° |
| 2026-05-06 17:07 | 52.98085 | 22.00074 | 24774 ft | 432 kts | 24° |
| 2026-05-06 17:07 | 53.00803 | 22.02257 | 24766 ft | 434 kts | 24° |
| 2026-05-06 17:08 | 53.03518 | 22.04441 | 24772 ft | 433 kts | 24° |
| 2026-05-06 17:08 | 53.06220 | 22.06620 | 24776 ft | 431 kts | 24° |
| 2026-05-06 17:08 | 53.08925 | 22.08800 | 24772 ft | 431 kts | 24° |
| 2026-05-06 17:08 | 53.11631 | 22.10984 | 24773 ft | 433 kts | 24° |
| 2026-05-06 17:09 | 53.14339 | 22.13176 | 24775 ft | 434 kts | 24° |
| 2026-05-06 17:09 | 53.17051 | 22.15374 | 24774 ft | 432 kts | 24° |
| 2026-05-06 17:09 | 53.19755 | 22.17569 | 24769 ft | 432 kts | 24° |
| 2026-05-06 17:09 | 53.22454 | 22.19760 | 24772 ft | 432 kts | 24° |
| 2026-05-06 17:10 | 53.25154 | 22.21955 | 24775 ft | 433 kts | 24° |
| 2026-05-06 17:10 | 53.27867 | 22.24164 | 24775 ft | 433 kts | 24° |
| 2026-05-06 17:10 | 53.30573 | 22.26374 | 24775 ft | 432 kts | 24° |
| 2026-05-06 17:10 | 53.33235 | 22.28551 | 24768 ft | 432 kts | 24° |
| 2026-05-06 17:11 | 53.35933 | 22.30757 | 24770 ft | 432 kts | 24° |
| 2026-05-06 17:11 | 53.38641 | 22.32972 | 24775 ft | 433 kts | 24° |
| 2026-05-06 17:11 | 53.41344 | 22.35190 | 24784 ft | 432 kts | 24° |
| 2026-05-06 17:11 | 53.44043 | 22.37411 | 24758 ft | 431 kts | 24° |
| 2026-05-06 17:12 | 53.46734 | 22.39625 | 24757 ft | 431 kts | 24° |
| 2026-05-06 17:12 | 53.49433 | 22.41846 | 24757 ft | 432 kts | 24° |
| 2026-05-06 17:12 | 53.52136 | 22.44077 | 24759 ft | 433 kts | 24° |
| 2026-05-06 17:12 | 53.54832 | 22.46305 | 24759 ft | 432 kts | 24° |
| 2026-05-06 17:13 | 53.57529 | 22.48536 | 24756 ft | 431 kts | 24° |
| 2026-05-06 17:13 | 53.60220 | 22.50767 | 24756 ft | 432 kts | 24° |
| 2026-05-06 17:13 | 53.62917 | 22.53005 | 24758 ft | 433 kts | 24° |
| 2026-05-06 17:13 | 53.65618 | 22.55249 | 24767 ft | 432 kts | 24° |
| 2026-05-06 17:14 | 53.68306 | 22.57488 | 24771 ft | 430 kts | 24° |
| 2026-05-06 17:14 | 53.70995 | 22.59728 | 24770 ft | 430 kts | 24° |
| 2026-05-06 17:14 | 53.73682 | 22.61970 | 24774 ft | 432 kts | 24° |
| 2026-05-06 17:14 | 53.76373 | 22.64220 | 24778 ft | 432 kts | 24° |
| 2026-05-06 17:15 | 53.79062 | 22.66470 | 24776 ft | 431 kts | 24° |
| 2026-05-06 17:15 | 53.81748 | 22.68722 | 24775 ft | 430 kts | 24° |
| 2026-05-06 17:15 | 53.84430 | 22.70974 | 24782 ft | 431 kts | 24° |
| 2026-05-06 17:15 | 53.87121 | 22.73236 | 24782 ft | 432 kts | 24° |
| 2026-05-06 17:16 | 53.89805 | 22.75494 | 24783 ft | 431 kts | 24° |
| 2026-05-06 17:16 | 53.92487 | 22.77756 | 24788 ft | 430 kts | 24° |
| 2026-05-06 17:16 | 53.95169 | 22.80024 | 24787 ft | 431 kts | 24° |
| 2026-05-06 17:16 | 53.97855 | 22.82290 | 24789 ft | 431 kts | 24° |
| 2026-05-06 17:17 | 54.00546 | 22.84562 | 24790 ft | 431 kts | 24° |
| 2026-05-06 17:17 | 54.03224 | 22.86838 | 24791 ft | 431 kts | 24° |
| 2026-05-06 17:17 | 54.05908 | 22.89090 | 24787 ft | 429 kts | 21° |
| 2026-05-06 17:17 | 54.08747 | 22.90435 | 24811 ft | 421 kts | 4° |
| 2026-05-06 17:18 | 54.11666 | 22.91078 | 24874 ft | 423 kts | 2° |
| 2026-05-06 17:18 | 54.14574 | 22.91674 | 25083 ft | 419 kts | 2° |
| 2026-05-06 17:18 | 54.17479 | 22.92295 | 25285 ft | 423 kts | 2° |
| 2026-05-06 17:18 | 54.20369 | 22.92933 | 25484 ft | 427 kts | 2° |
| 2026-05-06 17:19 | 54.23328 | 22.93586 | 25688 ft | 427 kts | 2° |
| 2026-05-06 17:19 | 54.26286 | 22.94229 | 25744 ft | 430 kts | 2° |
| 2026-05-06 17:19 | 54.29254 | 22.94874 | 25776 ft | 430 kts | 2° |
| 2026-05-06 17:19 | 54.32216 | 22.95527 | 25804 ft | 428 kts | 2° |
| 2026-05-06 17:20 | 54.35192 | 22.96177 | 25812 ft | 441 kts | 2° |
| 2026-05-06 17:20 | 54.38292 | 22.96846 | 25812 ft | 453 kts | 2° |
| 2026-05-06 17:20 | 54.41407 | 22.97542 | 25813 ft | 451 kts | 2° |
| 2026-05-06 17:20 | 54.44515 | 22.98237 | 25819 ft | 451 kts | 2° |
| 2026-05-06 17:21 | 54.47635 | 22.98918 | 25824 ft | 453 kts | 2° |
| 2026-05-06 17:21 | 54.50768 | 22.99605 | 25826 ft | 454 kts | 2° |
| 2026-05-06 17:21 | 54.53891 | 23.00302 | 25831 ft | 452 kts | 2° |
| 2026-05-06 17:21 | 54.57009 | 23.00998 | 25828 ft | 451 kts | 2° |
| 2026-05-06 17:22 | 54.60122 | 23.01687 | 25823 ft | 453 kts | 2° |
| 2026-05-06 17:22 | 54.63257 | 23.02381 | 25840 ft | 454 kts | 2° |
| 2026-05-06 17:22 | 54.66385 | 23.03077 | 25829 ft | 453 kts | 2° |
| 2026-05-06 17:22 | 54.69511 | 23.03778 | 25829 ft | 453 kts | 2° |
| 2026-05-06 17:23 | 54.72636 | 23.04475 | 25837 ft | 453 kts | 2° |
| 2026-05-06 17:23 | 54.75758 | 23.05171 | 25838 ft | 454 kts | 2° |
| 2026-05-06 17:23 | 54.78899 | 23.05875 | 25842 ft | 454 kts | 2° |
| 2026-05-06 17:23 | 54.82019 | 23.06579 | 25837 ft | 453 kts | 2° |
| 2026-05-06 17:24 | 54.85141 | 23.07280 | 25843 ft | 452 kts | 2° |
| 2026-05-06 17:24 | 54.88261 | 23.07983 | 25847 ft | 450 kts | 2° |
| 2026-05-06 17:24 | 54.91353 | 23.08682 | 25844 ft | 447 kts | 2° |
| 2026-05-06 17:24 | 54.94449 | 23.09377 | 25841 ft | 451 kts | 2° |
| 2026-05-06 17:25 | 54.97565 | 23.10081 | 25851 ft | 451 kts | 2° |
| 2026-05-06 17:25 | 55.00673 | 23.10790 | 25853 ft | 450 kts | 2° |
| 2026-05-06 17:25 | 55.03774 | 23.11495 | 25848 ft | 449 kts | 2° |
| 2026-05-06 17:25 | 55.06872 | 23.12194 | 25855 ft | 450 kts | 2° |
| 2026-05-06 17:26 | 55.09985 | 23.12900 | 25861 ft | 451 kts | 2° |
| 2026-05-06 17:26 | 55.13085 | 23.13609 | 25858 ft | 450 kts | 2° |
| 2026-05-06 17:26 | 55.16193 | 23.14324 | 25883 ft | 449 kts | 2° |
| 2026-05-06 17:26 | 55.19299 | 23.15033 | 25905 ft | 451 kts | 2° |
| 2026-05-06 17:27 | 55.22412 | 23.15742 | 25869 ft | 451 kts | 2° |
| 2026-05-06 17:27 | 55.25510 | 23.16457 | 25865 ft | 448 kts | 2° |
| 2026-05-06 17:27 | 55.28607 | 23.17173 | 25878 ft | 449 kts | 2° |
| 2026-05-06 17:27 | 55.31676 | 23.17872 | 25875 ft | 451 kts | 2° |
| 2026-05-06 17:28 | 55.34784 | 23.18586 | 25879 ft | 450 kts | 2° |
| 2026-05-06 17:28 | 55.37880 | 23.19307 | 25886 ft | 449 kts | 2° |
| 2026-05-06 17:28 | 55.41025 | 23.20035 | 25889 ft | 450 kts | 2° |
| 2026-05-06 17:28 | 55.44126 | 23.20749 | 25889 ft | 451 kts | 3° |
| 2026-05-06 17:29 | 55.47196 | 23.21461 | 25888 ft | 452 kts | 3° |
| 2026-05-06 17:29 | 55.50317 | 23.22190 | 25895 ft | 452 kts | 3° |
| 2026-05-06 17:29 | 55.53426 | 23.22913 | 25901 ft | 451 kts | 3° |
| 2026-05-06 17:29 | 55.56533 | 23.23636 | 25900 ft | 451 kts | 3° |
| 2026-05-06 17:30 | 55.59646 | 23.24363 | 25911 ft | 451 kts | 3° |
| 2026-05-06 17:30 | 55.62757 | 23.25092 | 25909 ft | 452 kts | 3° |
| 2026-05-06 17:30 | 55.65875 | 23.25822 | 25910 ft | 451 kts | 3° |
| 2026-05-06 17:30 | 55.68990 | 23.26551 | 25909 ft | 451 kts | 3° |
| 2026-05-06 17:31 | 55.72092 | 23.27280 | 25907 ft | 451 kts | 3° |
| 2026-05-06 17:31 | 55.75207 | 23.28014 | 25909 ft | 452 kts | 3° |
| 2026-05-06 17:31 | 55.78319 | 23.28748 | 25908 ft | 451 kts | 3° |
| 2026-05-06 17:31 | 55.81435 | 23.29483 | 25907 ft | 451 kts | 3° |
| 2026-05-06 17:32 | 55.84547 | 23.30220 | 25906 ft | 451 kts | 3° |
| 2026-05-06 17:32 | 55.87662 | 23.30956 | 25906 ft | 452 kts | 3° |
| 2026-05-06 17:32 | 55.90772 | 23.31696 | 25907 ft | 452 kts | 3° |
| 2026-05-06 17:32 | 55.93890 | 23.32438 | 25907 ft | 451 kts | 3° |
| 2026-05-06 17:33 | 55.96996 | 23.33176 | 25907 ft | 451 kts | 3° |
| 2026-05-06 17:33 | 56.00108 | 23.33916 | 25908 ft | 452 kts | 3° |
| 2026-05-06 17:33 | 56.03224 | 23.34661 | 25911 ft | 453 kts | 3° |
| 2026-05-06 17:33 | 56.06349 | 23.35410 | 25919 ft | 453 kts | 3° |
| 2026-05-06 17:34 | 56.09468 | 23.36158 | 25927 ft | 451 kts | 3° |
| 2026-05-06 17:34 | 56.12579 | 23.36905 | 25924 ft | 450 kts | 4° |
| 2026-05-06 17:34 | 56.15678 | 23.37649 | 25929 ft | 449 kts | 4° |
| 2026-05-06 17:34 | 56.18772 | 23.38393 | 25935 ft | 451 kts | 4° |
| 2026-05-06 17:35 | 56.21846 | 23.39134 | 25942 ft | 451 kts | 4° |
| 2026-05-06 17:35 | 56.24955 | 23.39886 | 25965 ft | 450 kts | 4° |
| 2026-05-06 17:35 | 56.28100 | 23.40647 | 25952 ft | 449 kts | 4° |
| 2026-05-06 17:36 | 56.34305 | 23.42151 | 25959 ft | 451 kts | 4° |
| 2026-05-06 17:36 | 56.37420 | 23.42796 | 25960 ft | 448 kts | 360° |
| 2026-05-06 17:36 | 56.40527 | 23.43250 | 25961 ft | 448 kts | 1° |
| 2026-05-06 17:36 | 56.43594 | 23.43797 | 25961 ft | 449 kts | 1° |
| 2026-05-06 17:37 | 56.46738 | 23.44339 | 25963 ft | 449 kts | 1° |
| 2026-05-06 17:37 | 56.49858 | 23.44810 | 25967 ft | 449 kts | 0° |
| 2026-05-06 17:37 | 56.52929 | 23.45278 | 25967 ft | 448 kts | 1° |
| 2026-05-06 17:37 | 56.56036 | 23.45792 | 25966 ft | 448 kts | 1° |
| 2026-05-06 17:38 | 56.59140 | 23.46304 | 25975 ft | 448 kts | 1° |
| 2026-05-06 17:38 | 56.62258 | 23.46798 | 25978 ft | 450 kts | 1° |
| 2026-05-06 17:38 | 56.65372 | 23.47297 | 25979 ft | 449 kts | 1° |
| 2026-05-06 17:38 | 56.68480 | 23.47805 | 25976 ft | 448 kts | 1° |
| 2026-05-06 17:39 | 56.71582 | 23.48309 | 25977 ft | 449 kts | 1° |
| 2026-05-06 17:39 | 56.74695 | 23.48813 | 25980 ft | 450 kts | 1° |
| 2026-05-06 17:39 | 56.77813 | 23.49318 | 25982 ft | 449 kts | 1° |
| 2026-05-06 17:39 | 56.80919 | 23.49826 | 25983 ft | 448 kts | 1° |
| 2026-05-06 17:40 | 56.84025 | 23.50331 | 25980 ft | 447 kts | 1° |
| 2026-05-06 17:40 | 56.87165 | 23.50844 | 25982 ft | 447 kts | 1° |
| 2026-05-06 17:40 | 56.90226 | 23.51347 | 25982 ft | 448 kts | 1° |
| 2026-05-06 17:40 | 56.93376 | 23.51862 | 25987 ft | 449 kts | 1° |
| 2026-05-06 17:41 | 56.96485 | 23.52374 | 25987 ft | 448 kts | 1° |
| 2026-05-06 17:41 | 56.99545 | 23.52876 | 25986 ft | 447 kts | 1° |
| 2026-05-06 17:41 | 57.02647 | 23.53387 | 25986 ft | 448 kts | 1° |
| 2026-05-06 17:41 | 57.05752 | 23.53899 | 25990 ft | 449 kts | 1° |
| 2026-05-06 17:42 | 57.08865 | 23.54416 | 25994 ft | 448 kts | 1° |
| 2026-05-06 17:42 | 57.11969 | 23.54930 | 25991 ft | 448 kts | 1° |
| 2026-05-06 17:42 | 57.15062 | 23.55442 | 25992 ft | 447 kts | 1° |
| 2026-05-06 17:42 | 57.18164 | 23.55957 | 25992 ft | 448 kts | 1° |
| 2026-05-06 17:43 | 57.21270 | 23.56476 | 25992 ft | 449 kts | 1° |
| 2026-05-06 17:43 | 57.24376 | 23.56992 | 25993 ft | 448 kts | 1° |
| 2026-05-06 17:43 | 57.27484 | 23.57512 | 25992 ft | 447 kts | 1° |
| 2026-05-06 17:43 | 57.30580 | 23.58030 | 25994 ft | 447 kts | 1° |
| 2026-05-06 17:44 | 57.33682 | 23.58548 | 25995 ft | 448 kts | 1° |
| 2026-05-06 17:44 | 57.36788 | 23.59071 | 25991 ft | 448 kts | 1° |
| 2026-05-06 17:44 | 57.39895 | 23.59594 | 25998 ft | 447 kts | 1° |
| 2026-05-06 17:44 | 57.42983 | 23.60115 | 25995 ft | 444 kts | 1° |
| 2026-05-06 17:45 | 57.46056 | 23.60633 | 25986 ft | 445 kts | 1° |
| 2026-05-06 17:45 | 57.49152 | 23.61152 | 25992 ft | 447 kts | 1° |
| 2026-05-06 17:45 | 57.52243 | 23.61678 | 25995 ft | 446 kts | 1° |
| 2026-05-06 17:45 | 57.55333 | 23.62205 | 25990 ft | 445 kts | 1° |
| 2026-05-06 17:46 | 57.58415 | 23.62726 | 25991 ft | 445 kts | 1° |
| 2026-05-06 17:46 | 57.61510 | 23.63252 | 25995 ft | 446 kts | 1° |
| 2026-05-06 17:46 | 57.64599 | 23.63779 | 25997 ft | 446 kts | 1° |
| 2026-05-06 17:46 | 57.67691 | 23.64308 | 25989 ft | 446 kts | 1° |
| 2026-05-06 17:47 | 57.70779 | 23.64836 | 25992 ft | 445 kts | 1° |
| 2026-05-06 17:47 | 57.73869 | 23.65365 | 26006 ft | 446 kts | 1° |
| 2026-05-06 17:47 | 57.76919 | 23.65887 | 25990 ft | 445 kts | 1° |
| 2026-05-06 17:47 | 57.79991 | 23.66418 | 25987 ft | 443 kts | 1° |
| 2026-05-06 17:48 | 57.83061 | 23.66946 | 25989 ft | 444 kts | 1° |
| 2026-05-06 17:48 | 57.86140 | 23.67474 | 25991 ft | 445 kts | 1° |
| 2026-05-06 17:48 | 57.89229 | 23.68010 | 25991 ft | 444 kts | 1° |
| 2026-05-06 17:48 | 57.92301 | 23.68544 | 25988 ft | 443 kts | 1° |
| 2026-05-06 17:49 | 57.95371 | 23.69075 | 26002 ft | 444 kts | 1° |
| 2026-05-06 17:49 | 57.98455 | 23.69609 | 25992 ft | 445 kts | 1° |
| 2026-05-06 17:49 | 58.00500 | 23.69965 | 25994 ft | 445 kts | 1° |
| 2026-05-06 17:49 | 58.03620 | 23.70510 | 25992 ft | 444 kts | 1° |
| 2026-05-06 17:50 | 58.06695 | 23.71047 | 25997 ft | 444 kts | 1° |
| 2026-05-06 17:50 | 58.09731 | 23.71576 | 25999 ft | 444 kts | 1° |
| 2026-05-06 17:50 | 58.12812 | 23.72115 | 26003 ft | 445 kts | 1° |
| 2026-05-06 17:50 | 58.15900 | 23.72658 | 26001 ft | 445 kts | 1° |
| 2026-05-06 17:51 | 58.18979 | 23.73200 | 26006 ft | 444 kts | 1° |
| 2026-05-06 17:51 | 58.22052 | 23.73740 | 26003 ft | 444 kts | 1° |
| 2026-05-06 17:51 | 58.25127 | 23.74281 | 26002 ft | 445 kts | 1° |
| 2026-05-06 17:51 | 58.28210 | 23.74826 | 26004 ft | 446 kts | 1° |
| 2026-05-06 17:52 | 58.31306 | 23.75374 | 26006 ft | 447 kts | 1° |
| 2026-05-06 17:52 | 58.34397 | 23.75922 | 26006 ft | 446 kts | 1° |
| 2026-05-06 17:52 | 58.37480 | 23.76471 | 26005 ft | 445 kts | 1° |
| 2026-05-06 17:52 | 58.40560 | 23.77017 | 26010 ft | 446 kts | 1° |
| 2026-05-06 17:53 | 58.43649 | 23.77567 | 26012 ft | 446 kts | 1° |
| 2026-05-06 17:53 | 58.46747 | 23.78121 | 26015 ft | 446 kts | 1° |
| 2026-05-06 17:53 | 58.49837 | 23.78675 | 26012 ft | 445 kts | 1° |
| 2026-05-06 17:53 | 58.52916 | 23.79226 | 26012 ft | 445 kts | 1° |
| 2026-05-06 17:54 | 58.56008 | 23.79780 | 26016 ft | 448 kts | 0° |
| 2026-05-06 17:54 | 58.59123 | 23.80337 | 26016 ft | 449 kts | 0° |
| 2026-05-06 17:54 | 58.62222 | 23.80900 | 26014 ft | 445 kts | 0° |
| 2026-05-06 17:54 | 58.65306 | 23.81458 | 26019 ft | 445 kts | 0° |
| 2026-05-06 17:55 | 58.68398 | 23.82011 | 26024 ft | 448 kts | 0° |
| 2026-05-06 17:55 | 58.71497 | 23.82572 | 26026 ft | 447 kts | 0° |
| 2026-05-06 17:55 | 58.74594 | 23.83139 | 26031 ft | 446 kts | 0° |
| 2026-05-06 17:55 | 58.77678 | 23.83698 | 26032 ft | 446 kts | 0° |
| 2026-05-06 17:56 | 58.80773 | 23.84258 | 26032 ft | 447 kts | 0° |
| 2026-05-06 17:56 | 58.83873 | 23.84824 | 26043 ft | 448 kts | 0° |
| 2026-05-06 17:56 | 58.86977 | 23.85394 | 26024 ft | 448 kts | 360° |
| 2026-05-06 17:56 | 58.90073 | 23.85960 | 26028 ft | 448 kts | 360° |
| 2026-05-06 17:57 | 58.93183 | 23.86528 | 26033 ft | 448 kts | 360° |
| 2026-05-06 17:57 | 58.96288 | 23.87099 | 26035 ft | 449 kts | 360° |
| 2026-05-06 17:57 | 58.99397 | 23.87672 | 26034 ft | 448 kts | 360° |
| 2026-05-06 17:57 | 59.02497 | 23.88244 | 26033 ft | 448 kts | 360° |
| 2026-05-06 17:58 | 59.05598 | 23.88816 | 26043 ft | 448 kts | 360° |
| 2026-05-06 17:58 | 59.08699 | 23.89389 | 26019 ft | 448 kts | 360° |
| 2026-05-06 17:58 | 59.11809 | 23.89966 | 26020 ft | 449 kts | 360° |
| 2026-05-06 17:58 | 59.14915 | 23.90544 | 26024 ft | 449 kts | 359° |
| 2026-05-06 17:59 | 59.18022 | 23.91122 | 26024 ft | 448 kts | 359° |
| 2026-05-06 17:59 | 59.21122 | 23.91698 | 26024 ft | 449 kts | 359° |
| 2026-05-06 17:59 | 59.24237 | 23.92279 | 26025 ft | 449 kts | 359° |
| 2026-05-06 17:59 | 59.27352 | 23.92863 | 26025 ft | 450 kts | 359° |
| 2026-05-06 18:00 | 59.30470 | 23.93449 | 26024 ft | 449 kts | 359° |
| 2026-05-06 18:00 | 59.33582 | 23.94033 | 26024 ft | 448 kts | 359° |
| 2026-05-06 18:00 | 59.36685 | 23.94614 | 26026 ft | 449 kts | 359° |
| 2026-05-06 18:00 | 59.39762 | 23.95194 | 26027 ft | 450 kts | 359° |
| 2026-05-06 18:01 | 59.42914 | 23.95791 | 26034 ft | 450 kts | 359° |
| 2026-05-06 18:01 | 59.45987 | 23.96373 | 26033 ft | 447 kts | 359° |
| 2026-05-06 18:01 | 59.49117 | 23.96967 | 26033 ft | 447 kts | 359° |
| 2026-05-06 18:01 | 59.52181 | 23.97544 | 26034 ft | 449 kts | 359° |
| 2026-05-06 18:02 | 59.55294 | 23.98136 | 26040 ft | 449 kts | 359° |
| 2026-05-06 18:02 | 59.58399 | 23.98733 | 26043 ft | 448 kts | 359° |
| 2026-05-06 18:02 | 59.61493 | 23.99322 | 26043 ft | 447 kts | 359° |
| 2026-05-06 18:02 | 59.64597 | 23.99912 | 26045 ft | 448 kts | 359° |
| 2026-05-06 18:03 | 59.67701 | 24.00507 | 26046 ft | 449 kts | 359° |
| 2026-05-06 18:03 | 59.70812 | 24.01107 | 26044 ft | 448 kts | 359° |
| 2026-05-06 18:03 | 59.73913 | 24.01704 | 26030 ft | 448 kts | 359° |
| 2026-05-06 18:03 | 59.77021 | 24.02302 | 26040 ft | 448 kts | 359° |
| 2026-05-06 18:04 | 59.80124 | 24.02899 | 26033 ft | 449 kts | 359° |
| 2026-05-06 18:04 | 59.83232 | 24.03499 | 26039 ft | 449 kts | 359° |
| 2026-05-06 18:04 | 59.86338 | 24.04104 | 26036 ft | 449 kts | 359° |
| 2026-05-06 18:04 | 59.89438 | 24.04706 | 26031 ft | 448 kts | 359° |
| 2026-05-06 18:05 | 59.92541 | 24.05308 | 26029 ft | 448 kts | 359° |
| 2026-05-06 18:05 | 59.95647 | 24.05913 | 26034 ft | 449 kts | 359° |
| 2026-05-06 18:05 | 59.98756 | 24.06519 | 26036 ft | 449 kts | 359° |
| 2026-05-06 18:05 | 60.01865 | 24.07129 | 26032 ft | 448 kts | 359° |
| 2026-05-06 18:06 | 60.04965 | 24.07741 | 26043 ft | 446 kts | 358° |
| 2026-05-06 18:06 | 60.08025 | 24.08344 | 26036 ft | 440 kts | 358° |
| 2026-05-06 18:06 | 60.11077 | 24.08937 | 26028 ft | 443 kts | 358° |
| 2026-05-06 18:06 | 60.14157 | 24.09535 | 26037 ft | 445 kts | 358° |
| 2026-05-06 18:07 | 60.17236 | 24.10150 | 26038 ft | 443 kts | 358° |
| 2026-05-06 18:07 | 60.20297 | 24.10764 | 26035 ft | 442 kts | 358° |
| 2026-05-06 18:07 | 60.23358 | 24.11365 | 26037 ft | 444 kts | 358° |
| 2026-05-06 18:07 | 60.26443 | 24.11971 | 26033 ft | 445 kts | 358° |
| 2026-05-06 18:08 | 60.29515 | 24.12586 | 26029 ft | 445 kts | 358° |
| 2026-05-06 18:08 | 60.32589 | 24.13204 | 26068 ft | 442 kts | 358° |
| 2026-05-06 18:08 | 60.35648 | 24.13814 | 26026 ft | 442 kts | 357° |
| 2026-05-06 18:08 | 60.38717 | 24.14422 | 26035 ft | 443 kts | 357° |
| 2026-05-06 18:09 | 60.41770 | 24.15034 | 26028 ft | 444 kts | 357° |
| 2026-05-06 18:09 | 60.44845 | 24.15655 | 26025 ft | 443 kts | 357° |
| 2026-05-06 18:09 | 60.47911 | 24.16273 | 26036 ft | 442 kts | 357° |
| 2026-05-06 18:09 | 60.50970 | 24.16888 | 26035 ft | 443 kts | 357° |
| 2026-05-06 18:10 | 60.54040 | 24.17505 | 26033 ft | 443 kts | 357° |
| 2026-05-06 18:10 | 60.57111 | 24.18128 | 26030 ft | 444 kts | 357° |
| 2026-05-06 18:10 | 60.60179 | 24.18752 | 26032 ft | 444 kts | 357° |
| 2026-05-06 18:10 | 60.63252 | 24.19379 | 26071 ft | 443 kts | 357° |
| 2026-05-06 18:11 | 60.66316 | 24.19999 | 26024 ft | 443 kts | 356° |
| 2026-05-06 18:11 | 60.69383 | 24.20623 | 26022 ft | 442 kts | 356° |
| 2026-05-06 18:11 | 60.72446 | 24.21251 | 26020 ft | 442 kts | 356° |
| 2026-05-06 18:11 | 60.75513 | 24.21877 | 26022 ft | 443 kts | 356° |
| 2026-05-06 18:12 | 60.78539 | 24.22495 | 26024 ft | 443 kts | 357° |
| 2026-05-06 18:12 | 60.81602 | 24.23129 | 26025 ft | 442 kts | 357° |
| 2026-05-06 18:12 | 60.84660 | 24.23761 | 26024 ft | 442 kts | 356° |
| 2026-05-06 18:12 | 60.87722 | 24.24387 | 26026 ft | 443 kts | 356° |
| 2026-05-06 18:13 | 60.90791 | 24.25019 | 26026 ft | 443 kts | 357° |
| 2026-05-06 18:13 | 60.93854 | 24.25657 | 26065 ft | 443 kts | 357° |
| 2026-05-06 18:13 | 60.96917 | 24.26296 | 26031 ft | 442 kts | 356° |
| 2026-05-06 18:13 | 60.99973 | 24.26932 | 26030 ft | 440 kts | 356° |
| 2026-05-06 18:14 | 61.03022 | 24.27560 | 26027 ft | 441 kts | 356° |
| 2026-05-06 18:14 | 61.06080 | 24.28195 | 26028 ft | 443 kts | 356° |
| 2026-05-06 18:14 | 61.09141 | 24.28839 | 26030 ft | 442 kts | 356° |
| 2026-05-06 18:14 | 61.11163 | 24.29269 | 26029 ft | 441 kts | 356° |
| 2026-05-06 18:15 | 61.15246 | 24.30122 | 26028 ft | 441 kts | 356° |
| 2026-05-06 18:15 | 61.18311 | 24.30759 | 26033 ft | 443 kts | 356° |
| 2026-05-06 18:15 | 61.21376 | 24.31410 | 26032 ft | 442 kts | 356° |
| 2026-05-06 18:15 | 61.24428 | 24.32061 | 26032 ft | 441 kts | 355° |
| 2026-05-06 18:16 | 61.27483 | 24.32702 | 26029 ft | 442 kts | 355° |
| 2026-05-06 18:16 | 61.30535 | 24.33347 | 26030 ft | 440 kts | 355° |
| 2026-05-06 18:16 | 61.32553 | 24.33778 | 26035 ft | 440 kts | 355° |
| 2026-05-06 18:16 | 61.36640 | 24.34644 | 26030 ft | 442 kts | 355° |
| 2026-05-06 18:17 | 61.42756 | 24.35953 | 26033 ft | 441 kts | 355° |
| 2026-05-06 18:17 | 61.45797 | 24.36606 | 26032 ft | 440 kts | 355° |
| 2026-05-06 18:17 | 61.48848 | 24.37253 | 26027 ft | 441 kts | 355° |
| 2026-05-06 18:18 | 61.51903 | 24.37907 | 26038 ft | 442 kts | 355° |
| 2026-05-06 18:18 | 61.54960 | 24.38664 | 26036 ft | 442 kts | 355° |
| 2026-05-06 18:18 | 61.58013 | 24.39265 | 26023 ft | 439 kts | 353° |
| 2026-05-06 18:18 | 61.61047 | 24.39832 | 26021 ft | 438 kts | 355° |
| 2026-05-06 18:19 | 61.64081 | 24.40802 | 26021 ft | 445 kts | 359° |
| 2026-05-06 18:19 | 61.66108 | 24.41586 | 26019 ft | 447 kts | 359° |
| 2026-05-06 18:19 | 61.68136 | 24.42311 | 26017 ft | 445 kts | 357° |
| 2026-05-06 18:19 | 61.73243 | 24.43761 | 26006 ft | 441 kts | 356° |
| 2026-05-06 18:20 | 61.76292 | 24.44678 | 25999 ft | 443 kts | 357° |
| 2026-05-06 18:20 | 61.79349 | 24.45727 | 25997 ft | 444 kts | 356° |
| 2026-05-06 18:20 | 61.82401 | 24.46386 | 25999 ft | 438 kts | 353° |
| 2026-05-06 18:20 | 61.85428 | 24.46887 | 25997 ft | 438 kts | 354° |
| 2026-05-06 18:21 | 61.88474 | 24.47748 | 26025 ft | 446 kts | 358° |
| 2026-05-06 18:21 | 61.91522 | 24.48959 | 26029 ft | 443 kts | 359° |
| 2026-05-06 18:21 | 61.94525 | 24.50018 | 26020 ft | 430 kts | 355° |
| 2026-05-06 18:21 | 61.97449 | 24.50827 | 26009 ft | 422 kts | 354° |
| 2026-05-06 18:22 | 62.00385 | 24.51652 | 26014 ft | 429 kts | 356° |
| 2026-05-06 18:22 | 62.03312 | 24.52624 | 26018 ft | 432 kts | 357° |
| 2026-05-06 18:22 | 62.06303 | 24.53651 | 26014 ft | 429 kts | 356° |
| 2026-05-06 18:22 | 62.09214 | 24.54567 | 26013 ft | 428 kts | 355° |
| 2026-05-06 18:23 | 62.12170 | 24.55462 | 26020 ft | 430 kts | 356° |
| 2026-05-06 18:23 | 62.15129 | 24.56416 | 26021 ft | 428 kts | 356° |
| 2026-05-06 18:23 | 62.18066 | 24.57388 | 26065 ft | 427 kts | 356° |
| 2026-05-06 18:23 | 62.21012 | 24.58328 | 26027 ft | 427 kts | 356° |
| 2026-05-06 18:24 | 62.23938 | 24.59262 | 26015 ft | 424 kts | 356° |
| 2026-05-06 18:24 | 62.26853 | 24.60201 | 26016 ft | 426 kts | 356° |
| 2026-05-06 18:24 | 62.29794 | 24.61149 | 26022 ft | 427 kts | 356° |
| 2026-05-06 18:24 | 62.32732 | 24.62104 | 26017 ft | 426 kts | 356° |
| 2026-05-06 18:25 | 62.35655 | 24.63060 | 26017 ft | 425 kts | 356° |
| 2026-05-06 18:25 | 62.38576 | 24.64007 | 26016 ft | 425 kts | 356° |
| 2026-05-06 18:25 | 62.41502 | 24.64952 | 26023 ft | 426 kts | 356° |
| 2026-05-06 18:25 | 62.44441 | 24.65914 | 26006 ft | 426 kts | 356° |
| 2026-05-06 18:26 | 62.47361 | 24.66878 | 26016 ft | 425 kts | 356° |
| 2026-05-06 18:26 | 62.50292 | 24.67834 | 26008 ft | 426 kts | 356° |
| 2026-05-06 18:26 | 62.53223 | 24.68789 | 26014 ft | 427 kts | 356° |
| 2026-05-06 18:26 | 62.56153 | 24.69758 | 26007 ft | 426 kts | 356° |
| 2026-05-06 18:27 | 62.59088 | 24.70734 | 26008 ft | 426 kts | 356° |
| 2026-05-06 18:27 | 62.62017 | 24.71698 | 26008 ft | 426 kts | 356° |
| 2026-05-06 18:27 | 62.64943 | 24.72661 | 26013 ft | 426 kts | 356° |
| 2026-05-06 18:27 | 62.67881 | 24.73636 | 26013 ft | 427 kts | 356° |
| 2026-05-06 18:28 | 62.70814 | 24.74617 | 26017 ft | 426 kts | 356° |
| 2026-05-06 18:28 | 62.73704 | 24.75579 | 26009 ft | 426 kts | 356° |
| 2026-05-06 18:28 | 62.76636 | 24.76555 | 26019 ft | 426 kts | 356° |
| 2026-05-06 18:28 | 62.79565 | 24.77533 | 26056 ft | 427 kts | 356° |
| 2026-05-06 18:29 | 62.82503 | 24.78520 | 26008 ft | 424 kts | 355° |
| 2026-05-06 18:29 | 62.85400 | 24.79504 | 26002 ft | 421 kts | 355° |
| 2026-05-06 18:29 | 62.88312 | 24.80473 | 26004 ft | 423 kts | 355° |
| 2026-05-06 18:29 | 62.91227 | 24.81442 | 26006 ft | 425 kts | 355° |
| 2026-05-06 18:30 | 62.94143 | 24.82438 | 26006 ft | 424 kts | 356° |
| 2026-05-06 18:30 | 62.97057 | 24.83434 | 26004 ft | 423 kts | 355° |
| 2026-05-06 18:30 | 62.99961 | 24.84412 | 26004 ft | 424 kts | 355° |
| 2026-05-06 18:30 | 63.02879 | 24.85395 | 26005 ft | 425 kts | 355° |
| 2026-05-06 18:31 | 63.05797 | 24.86394 | 26003 ft | 424 kts | 356° |
| 2026-05-06 18:31 | 63.08712 | 24.87396 | 26001 ft | 423 kts | 355° |
| 2026-05-06 18:31 | 63.11625 | 24.88390 | 26111 ft | 423 kts | 355° |
| 2026-05-06 18:31 | 63.14542 | 24.89381 | 26004 ft | 423 kts | 355° |
| 2026-05-06 18:32 | 63.17423 | 24.90384 | 26002 ft | 418 kts | 355° |
| 2026-05-06 18:32 | 63.20305 | 24.91372 | 25999 ft | 420 kts | 355° |
| 2026-05-06 18:32 | 63.23207 | 24.92355 | 26002 ft | 422 kts | 355° |
| 2026-05-06 18:32 | 63.26105 | 24.93364 | 26003 ft | 421 kts | 356° |
| 2026-05-06 18:33 | 63.28985 | 24.94374 | 26000 ft | 420 kts | 355° |
| 2026-05-06 18:33 | 63.31881 | 24.95371 | 25994 ft | 420 kts | 355° |
| 2026-05-06 18:33 | 63.34771 | 24.96365 | 25993 ft | 422 kts | 355° |
| 2026-05-06 18:33 | 63.37672 | 24.97381 | 25996 ft | 422 kts | 356° |
| 2026-05-06 18:34 | 63.40569 | 24.98400 | 25992 ft | 420 kts | 355° |
| 2026-05-06 18:34 | 63.43453 | 24.99404 | 26041 ft | 420 kts | 356° |
| 2026-05-06 18:34 | 63.46339 | 25.00410 | 25993 ft | 417 kts | 357° |
| 2026-05-06 18:34 | 63.49190 | 25.01423 | 25990 ft | 414 kts | 357° |
| 2026-05-06 18:35 | 63.52010 | 25.02405 | 25992 ft | 417 kts | 357° |
| 2026-05-06 18:35 | 63.54881 | 25.03409 | 25988 ft | 418 kts | 357° |
| 2026-05-06 18:35 | 63.57751 | 25.04431 | 25989 ft | 417 kts | 357° |
| 2026-05-06 18:35 | 63.60608 | 25.05449 | 25985 ft | 416 kts | 357° |
| 2026-05-06 18:36 | 63.63471 | 25.06456 | 25991 ft | 417 kts | 357° |
| 2026-05-06 18:36 | 63.66338 | 25.07472 | 25989 ft | 418 kts | 357° |
| 2026-05-06 18:36 | 63.69208 | 25.08498 | 25990 ft | 417 kts | 357° |
| 2026-05-06 18:36 | 63.71146 | 25.09192 | 25986 ft | 417 kts | 357° |
| 2026-05-06 18:37 | 63.74009 | 25.10216 | 25984 ft | 416 kts | 357° |
| 2026-05-06 18:37 | 63.76871 | 25.11231 | 25981 ft | 417 kts | 359° |
| 2026-05-06 18:37 | 63.79715 | 25.12260 | 25987 ft | 411 kts | 359° |
| 2026-05-06 18:37 | 63.82541 | 25.13280 | 25985 ft | 413 kts | 359° |
| 2026-05-06 18:38 | 63.85392 | 25.14293 | 25986 ft | 415 kts | 359° |
| 2026-05-06 18:38 | 63.88204 | 25.15311 | 25982 ft | 414 kts | 359° |
| 2026-05-06 18:38 | 63.91039 | 25.16347 | 25986 ft | 413 kts | 359° |
| 2026-05-06 18:38 | 63.93881 | 25.17373 | 25979 ft | 414 kts | 359° |
| 2026-05-06 18:39 | 63.96730 | 25.18401 | 25977 ft | 415 kts | 359° |
| 2026-05-06 18:39 | 63.99576 | 25.19440 | 25984 ft | 414 kts | 359° |
| 2026-05-06 18:39 | 64.02420 | 25.20481 | 25979 ft | 413 kts | 359° |
| 2026-05-06 18:40 | 64.08103 | 25.22552 | 25972 ft | 414 kts | 1° |
| 2026-05-06 18:40 | 64.10924 | 25.23594 | 25972 ft | 407 kts | 2° |
| 2026-05-06 18:40 | 64.13718 | 25.24626 | 25971 ft | 408 kts | 1° |
| 2026-05-06 18:40 | 64.16543 | 25.25654 | 25980 ft | 411 kts | 2° |
| 2026-05-06 18:41 | 64.19357 | 25.26696 | 25976 ft | 409 kts | 2° |
| 2026-05-06 18:41 | 64.22160 | 25.27744 | 25976 ft | 408 kts | 2° |
| 2026-05-06 18:41 | 64.24969 | 25.28779 | 25972 ft | 410 kts | 2° |
| 2026-05-06 18:41 | 64.27785 | 25.29820 | 25980 ft | 410 kts | 2° |
| 2026-05-06 18:42 | 64.30595 | 25.30872 | 25974 ft | 409 kts | 2° |
| 2026-05-06 18:42 | 64.33399 | 25.31919 | 25970 ft | 408 kts | 2° |
| 2026-05-06 18:42 | 64.36207 | 25.32966 | 25969 ft | 409 kts | 2° |
| 2026-05-06 18:42 | 64.39019 | 25.34017 | 26001 ft | 410 kts | 4° |
| 2026-05-06 18:43 | 64.41824 | 25.35070 | 25966 ft | 406 kts | 4° |
| 2026-05-06 18:43 | 64.44605 | 25.36124 | 25962 ft | 405 kts | 4° |
| 2026-05-06 18:43 | 64.47395 | 25.37171 | 25963 ft | 407 kts | 4° |
| 2026-05-06 18:43 | 64.50199 | 25.38225 | 25966 ft | 408 kts | 4° |
| 2026-05-06 18:44 | 64.52996 | 25.39290 | 25966 ft | 406 kts | 4° |
| 2026-05-06 18:44 | 64.55780 | 25.40346 | 25964 ft | 406 kts | 4° |
| 2026-05-06 18:44 | 64.58568 | 25.41403 | 25965 ft | 407 kts | 4° |
| 2026-05-06 18:44 | 64.61371 | 25.42470 | 25964 ft | 407 kts | 4° |
| 2026-05-06 18:45 | 64.64165 | 25.43538 | 25963 ft | 407 kts | 4° |
| 2026-05-06 18:45 | 64.66948 | 25.44604 | 25961 ft | 406 kts | 4° |
| 2026-05-06 18:45 | 64.69744 | 25.45672 | 25961 ft | 407 kts | 4° |
| 2026-05-06 18:45 | 64.72541 | 25.46744 | 25961 ft | 408 kts | 6° |
| 2026-05-06 18:46 | 64.75329 | 25.47819 | 25963 ft | 405 kts | 6° |
| 2026-05-06 18:46 | 64.78106 | 25.48896 | 25959 ft | 405 kts | 6° |
| 2026-05-06 18:46 | 64.80891 | 25.49967 | 25959 ft | 406 kts | 6° |
| 2026-05-06 18:46 | 64.83684 | 25.51047 | 25961 ft | 407 kts | 6° |
| 2026-05-06 18:47 | 64.86471 | 25.52133 | 25963 ft | 405 kts | 6° |
| 2026-05-06 18:47 | 64.89256 | 25.53215 | 25962 ft | 405 kts | 6° |
| 2026-05-06 18:47 | 64.92040 | 25.54299 | 25962 ft | 406 kts | 6° |
| 2026-05-06 18:47 | 64.94835 | 25.55390 | 25964 ft | 407 kts | 6° |
| 2026-05-06 18:48 | 64.97624 | 25.56483 | 25962 ft | 406 kts | 6° |
| 2026-05-06 18:48 | 65.00407 | 25.57574 | 25961 ft | 405 kts | 6° |
| 2026-05-06 18:48 | 65.03184 | 25.58665 | 25977 ft | 406 kts | 6° |
| 2026-05-06 18:48 | 65.05989 | 25.59767 | 25785 ft | 407 kts | 6° |
| 2026-05-06 18:49 | 65.08763 | 25.60866 | 25607 ft | 401 kts | 6° |
| 2026-05-06 18:49 | 65.11450 | 25.61938 | 25407 ft | 383 kts | 6° |
| 2026-05-06 18:49 | 65.14054 | 25.62966 | 25211 ft | 379 kts | 6° |
| 2026-05-06 18:49 | 65.16671 | 25.63994 | 25032 ft | 383 kts | 7° |
| 2026-05-06 18:50 | 65.19306 | 25.65043 | 24786 ft | 383 kts | 7° |
| 2026-05-06 18:50 | 65.21911 | 25.66090 | 24548 ft | 377 kts | 7° |
| 2026-05-06 18:50 | 65.24491 | 25.67119 | 24304 ft | 374 kts | 7° |
| 2026-05-06 18:50 | 65.27023 | 25.68130 | 24061 ft | 374 kts | 8° |
| 2026-05-06 18:51 | 65.29587 | 25.69159 | 23811 ft | 373 kts | 8° |
| 2026-05-06 18:51 | 65.32168 | 25.70196 | 23532 ft | 370 kts | 8° |
| 2026-05-06 18:51 | 65.34699 | 25.71218 | 23192 ft | 367 kts | 8° |
| 2026-05-06 18:51 | 65.37168 | 25.72214 | 22823 ft | 364 kts | 8° |
| 2026-05-06 18:52 | 65.39656 | 25.73220 | 22476 ft | 363 kts | 8° |
| 2026-05-06 18:52 | 65.42146 | 25.74227 | 22129 ft | 361 kts | 8° |
| 2026-05-06 18:52 | 65.44607 | 25.75225 | 21780 ft | 358 kts | 8° |
| 2026-05-06 18:52 | 65.47053 | 25.76221 | 21429 ft | 355 kts | 8° |
| 2026-05-06 18:53 | 65.49488 | 25.77211 | 21027 ft | 355 kts | 8° |
| 2026-05-06 18:53 | 65.51911 | 25.78201 | 20619 ft | 351 kts | 8° |
| 2026-05-06 18:53 | 65.54304 | 25.79181 | 20221 ft | 347 kts | 8° |
| 2026-05-06 18:53 | 65.56675 | 25.80150 | 19816 ft | 345 kts | 8° |
| 2026-05-06 18:54 | 65.59031 | 25.81118 | 19418 ft | 343 kts | 8° |
| 2026-05-06 18:54 | 65.61383 | 25.82084 | 19033 ft | 341 kts | 8° |
| 2026-05-06 18:54 | 65.63708 | 25.83042 | 18644 ft | 338 kts | 8° |
| 2026-05-06 18:54 | 65.66014 | 25.83994 | 18265 ft | 335 kts | 8° |
| 2026-05-06 18:55 | 65.68310 | 25.84942 | 17846 ft | 333 kts | 8° |
| 2026-05-06 18:55 | 65.70589 | 25.85886 | 17421 ft | 331 kts | 8° |
| 2026-05-06 18:55 | 65.72851 | 25.86823 | 16993 ft | 328 kts | 8° |
| 2026-05-06 18:55 | 65.75093 | 25.87757 | 16573 ft | 326 kts | 8° |
| 2026-05-06 18:56 | 65.77324 | 25.88684 | 16163 ft | 325 kts | 8° |
| 2026-05-06 18:56 | 65.79544 | 25.89610 | 15746 ft | 323 kts | 9° |
| 2026-05-06 18:56 | 65.81741 | 25.90529 | 15353 ft | 317 kts | 9° |
| 2026-05-06 18:56 | 65.83902 | 25.91432 | 14958 ft | 315 kts | 9° |
| 2026-05-06 18:57 | 65.86070 | 25.92341 | 14573 ft | 316 kts | 9° |
| 2026-05-06 18:57 | 65.88222 | 25.93245 | 14189 ft | 313 kts | 9° |
| 2026-05-06 18:57 | 65.90346 | 25.94139 | 13804 ft | 304 kts | 9° |
| 2026-05-06 18:57 | 65.92391 | 25.95002 | 13371 ft | 294 kts | 9° |
| 2026-05-06 18:58 | 65.94396 | 25.95847 | 12943 ft | 292 kts | 8° |
| 2026-05-06 18:58 | 65.96408 | 25.96696 | 12531 ft | 294 kts | 9° |
| 2026-05-06 18:58 | 65.98421 | 25.97547 | 12120 ft | 293 kts | 9° |
| 2026-05-06 18:58 | 66.00401 | 25.98389 | 11732 ft | 291 kts | 9° |
| 2026-05-06 18:59 | 66.02387 | 25.99233 | 11328 ft | 289 kts | 8° |
| 2026-05-06 18:59 | 66.04339 | 26.00063 | 10929 ft | 280 kts | 8° |
| 2026-05-06 18:59 | 66.06227 | 26.00869 | 10515 ft | 271 kts | 8° |
| 2026-05-06 18:59 | 66.08077 | 26.01656 | 10127 ft | 269 kts | 8° |
| 2026-05-06 19:00 | 66.09905 | 26.02438 | 9733 ft | 263 kts | 8° |
| 2026-05-06 19:00 | 66.11683 | 26.03198 | 9301 ft | 256 kts | 8° |
| 2026-05-06 19:00 | 66.13430 | 26.03946 | 8878 ft | 254 kts | 8° |
| 2026-05-06 19:00 | 66.15175 | 26.04694 | 8462 ft | 255 kts | 8° |
| 2026-05-06 19:01 | 66.16929 | 26.05448 | 8068 ft | 255 kts | 8° |
| 2026-05-06 19:01 | 66.18670 | 26.06197 | 7674 ft | 253 kts | 8° |
| 2026-05-06 19:01 | 66.20399 | 26.06941 | 7294 ft | 251 kts | 9° |
| 2026-05-06 19:01 | 66.22111 | 26.07680 | 6895 ft | 249 kts | 9° |
| 2026-05-06 19:02 | 66.23813 | 26.08416 | 6508 ft | 248 kts | 9° |
| 2026-05-06 19:02 | 66.25505 | 26.09147 | 6113 ft | 247 kts | 9° |
| 2026-05-06 19:02 | 66.27192 | 26.09879 | 5703 ft | 243 kts | 9° |
| 2026-05-06 19:02 | 66.28839 | 26.10592 | 5292 ft | 238 kts | 10° |
| 2026-05-06 19:03 | 66.30450 | 26.11293 | 4875 ft | 233 kts | 10° |
| 2026-05-06 19:03 | 66.32029 | 26.11979 | 4471 ft | 228 kts | 10° |
| 2026-05-06 19:03 | 66.33593 | 26.12662 | 4096 ft | 230 kts | 10° |
| 2026-05-06 19:03 | 66.35183 | 26.13358 | 3732 ft | 233 kts | 9° |
| 2026-05-06 19:04 | 66.36773 | 26.14051 | 3374 ft | 231 kts | 9° |
| 2026-05-06 19:04 | 66.38340 | 26.14736 | 3151 ft | 227 kts | 9° |
| 2026-05-06 19:04 | 66.39910 | 26.15421 | 2936 ft | 231 kts | 9° |
| 2026-05-06 19:04 | 66.41494 | 26.16117 | 2736 ft | 232 kts | 9° |
| 2026-05-06 19:05 | 66.43077 | 26.16812 | 2591 ft | 228 kts | 9° |
| 2026-05-06 19:05 | 66.44634 | 26.17497 | 2545 ft | 229 kts | 9° |
| 2026-05-06 19:05 | 66.46215 | 26.18193 | 2534 ft | 231 kts | 9° |
| 2026-05-06 19:05 | 66.47773 | 26.18877 | 2516 ft | 229 kts | 9° |
| 2026-05-06 19:06 | 66.49366 | 26.19581 | 2516 ft | 231 kts | 9° |
| 2026-05-06 19:06 | 66.50932 | 26.20272 | 2515 ft | 231 kts | 9° |
| 2026-05-06 19:06 | 66.52504 | 26.20967 | 2514 ft | 229 kts | 9° |
| 2026-05-06 19:06 | 66.54082 | 26.21667 | 2515 ft | 231 kts | 9° |
| 2026-05-06 19:07 | 66.55663 | 26.22366 | 2517 ft | 230 kts | 9° |
| 2026-05-06 19:07 | 66.57237 | 26.23067 | 2513 ft | 230 kts | 9° |
| 2026-05-06 19:07 | 66.58817 | 26.23768 | 2518 ft | 232 kts | 9° |
| 2026-05-06 19:07 | 66.60395 | 26.24471 | 2521 ft | 230 kts | 9° |
| 2026-05-06 19:08 | 66.61969 | 26.25172 | 2536 ft | 230 kts | 9° |
| 2026-05-06 19:08 | 66.63548 | 26.25877 | 2540 ft | 231 kts | 8° |
| 2026-05-06 19:08 | 66.65124 | 26.25912 | 2503 ft | 220 kts | 339° |
| 2026-05-06 19:08 | 66.66372 | 26.24001 | 2506 ft | 212 kts | 311° |
| 2026-05-06 19:09 | 66.67299 | 26.21066 | 2526 ft | 213 kts | 305° |
| 2026-05-06 19:09 | 66.68163 | 26.18232 | 2516 ft | 193 kts | 306° |
| 2026-05-06 19:09 | 66.68944 | 26.15654 | 2530 ft | 183 kts | 305° |
| 2026-05-06 19:09 | 66.69543 | 26.12843 | 2499 ft | 182 kts | 281° |
| 2026-05-06 19:10 | 66.69522 | 26.09743 | 2446 ft | 172 kts | 255° |
| 2026-05-06 19:10 | 66.68969 | 26.07089 | 2414 ft | 175 kts | 229° |
| 2026-05-06 19:10 | 66.68033 | 26.05149 | 2416 ft | 174 kts | 216° |
| 2026-05-06 19:10 | 66.67055 | 26.03256 | 2345 ft | 180 kts | 219° |
| 2026-05-06 19:11 | 66.66106 | 26.01321 | 2280 ft | 174 kts | 219° |
| 2026-05-06 19:11 | 66.65148 | 25.99416 | 2235 ft | 176 kts | 218° |
| 2026-05-06 19:11 | 66.64190 | 25.97594 | 2210 ft | 163 kts | 217° |
| 2026-05-06 19:11 | 66.63335 | 25.96022 | 2185 ft | 152 kts | 217° |
| 2026-05-06 19:12 | 66.62506 | 25.94500 | 1927 ft | 142 kts | 217° |
| 2026-05-06 19:12 | 66.61714 | 25.93023 | 1736 ft | 142 kts | 218° |
| 2026-05-06 19:12 | 66.60935 | 25.91542 | 1495 ft | 136 kts | 218° |
| 2026-05-06 19:12 | 66.60211 | 25.90136 | 1304 ft | 130 kts | 218° |
| 2026-05-06 19:13 | 66.59484 | 25.88704 | 1110 ft | 134 kts | 217° |
| 2026-05-06 19:13 | 66.58748 | 25.87277 | 940 ft | 133 kts | 216° |
| 2026-05-06 19:13 | 66.58009 | 25.85896 | 796 ft | 131 kts | 213° |
| 2026-05-06 19:13 | 66.57277 | 25.84566 | 643 ft | 126 kts | 215° |
| 2026-05-06 19:14 | 66.56732 | 25.83512 | 641 ft | 68 kts | 217° |
| 2026-05-06 19:14 | 66.56430 | 25.82935 | 644 ft | 58 kts | 216° |
| 2026-05-06 19:14 | 66.56179 | 25.82459 | 640 ft | 40 kts | 217° |
| 2026-05-06 19:14 | 66.55969 | 25.82068 | 644 ft | 34 kts | 216° |
| 2026-05-06 19:15 | 66.55832 | 25.81775 | 639 ft | 17 kts | 248° |
| 2026-05-06 19:15 | 66.55866 | 25.81488 | 642 ft | 19 kts | 320° |
| 2026-05-06 19:15 | 66.55988 | 25.81481 | 635 ft | 13 kts | 24° |
| 2026-05-06 19:15 | 66.55995 | 25.81490 | 627 ft | 0 kts | 24° |
| 2026-05-06 19:16 | 66.55996 | 25.81491 | 627 ft | 1 kts | 24° |
| 2026-05-06 19:16 | 66.56053 | 25.81554 | 636 ft | 16 kts | 24° |
| 2026-05-06 19:16 | 66.56149 | 25.81679 | 642 ft | 15 kts | 36° |
| 2026-05-06 19:17 | 66.56215 | 25.81808 | 644 ft | 10 kts | 38° |
| 2026-05-06 19:17 | 66.56267 | 25.81911 | 646 ft | 9 kts | 38° |
| 2026-05-06 19:17 | 66.56306 | 25.81989 | 641 ft | 6 kts | 38° |
| 2026-05-06 19:17 | 66.56338 | 25.82053 | 642 ft | 9 kts | 38° |
| 2026-05-06 19:18 | 66.56419 | 25.82214 | 646 ft | 18 kts | 38° |
| 2026-05-06 19:18 | 66.56521 | 25.82407 | 650 ft | 17 kts | 37° |
| 2026-05-06 19:18 | 66.56616 | 25.82584 | 652 ft | 17 kts | 37° |
| 2026-05-06 19:18 | 66.56679 | 25.82659 | 653 ft | 4 kts | 346° |
| 2026-05-06 19:19 | 66.56686 | 25.82652 | 653 ft | 0 kts | 336° |
| 2026-05-06 19:19 | 66.56700 | 25.82616 | 659 ft | 4 kts | 310° |
| 2026-05-06 19:19 | 66.56721 | 25.82549 | 659 ft | 5 kts | 307° |
| 2026-05-06 19:19 | 66.56721 | 25.82547 | 660 ft | 0 kts | 307° |